Time;durP1;ratioP1;P1;durP2;ratioP2;P2;SDS_P1;SDS_P2;PMS_P1;PMS_P2;Temp;Humidity;BMP_temperature;BMP_pressure;BME280_temperature;BME280_humidity;BME280_pressure;Samples;Min_cycle;Max_cycle;Signal;HPM_P1;HPM_P2
2022/05/17 00:00:55;;;;;;;10.00;4.75;;;15.10;90.00;;;;;;5038283;28;20033;-63
2022/05/17 00:03:21;;;;;;;6.88;3.65;;;15.10;90.10;;;;;;5038093;28;20041;-63
2022/05/17 00:05:47;;;;;;;10.48;4.90;;;15.10;90.30;;;;;;5038171;28;20022;-63
2022/05/17 00:08:13;;;;;;;8.52;4.43;;;15.10;90.00;;;;;;5037953;28;20159;-63
2022/05/17 00:10:40;;;;;;;13.90;5.45;;;15.10;89.20;;;;;;5038131;28;20025;-63
2022/05/17 00:13:05;;;;;;;13.45;6.68;;;15.10;88.40;;;;;;5038084;28;20025;-63
2022/05/17 00:15:33;;;;;;;13.88;6.28;;;15.10;90.00;;;;;;5037879;28;20021;-63
2022/05/17 00:18:00;;;;;;;15.63;6.68;;;15.10;89.80;;;;;;5037799;28;20033;-63
2022/05/17 00:20:26;;;;;;;12.85;6.57;;;15.10;89.40;;;;;;5037968;28;20057;-63
2022/05/17 00:22:53;;;;;;;11.88;5.85;;;15.10;89.40;;;;;;5037942;28;20109;-63
2022/05/17 00:25:21;;;;;;;11.32;5.55;;;15.10;90.10;;;;;;5038165;28;20014;-63
2022/05/17 00:27:47;;;;;;;14.10;5.68;;;15.10;90.20;;;;;;5038088;28;20033;-63
2022/05/17 00:30:14;;;;;;;13.20;6.05;;;15.10;90.00;;;;;;5037789;28;20021;-63
2022/05/17 00:32:40;;;;;;;10.57;6.32;;;15.10;90.60;;;;;;5037750;28;20389;-63
2022/05/17 00:35:08;;;;;;;9.73;5.28;;;15.10;90.10;;;;;;5037514;28;20032;-63
2022/05/17 00:37:34;;;;;;;9.85;5.72;;;15.10;90.30;;;;;;5037628;28;20033;-63
2022/05/17 00:40:00;;;;;;;13.48;6.55;;;15.00;90.50;;;;;;5037632;28;20025;-63
2022/05/17 00:42:26;;;;;;;10.82;5.70;;;15.00;90.70;;;;;;5037681;28;20060;-63
2022/05/17 00:44:51;;;;;;;11.65;5.82;;;15.00;90.50;;;;;;5037627;28;20021;-63
2022/05/17 00:47:30;;;;;;;9.63;4.97;;;15.00;90.20;;;;;;5037427;28;20096;-63
2022/05/17 00:50:02;;;;;;;10.77;4.70;;;15.00;90.20;;;;;;5037432;28;20025;-63
2022/05/17 00:52:40;;;;;;;9.52;4.68;;;15.00;90.00;;;;;;5037656;28;20033;-63
2022/05/17 00:55:23;;;;;;;8.98;4.35;;;14.90;90.10;;;;;;5037053;28;20053;-63
2022/05/17 00:57:55;;;;;;;10.40;5.30;;;14.90;90.10;;;;;;5037321;28;20040;-63
2022/05/17 01:00:22;;;;;;;9.30;4.82;;;14.90;90.00;;;;;;5037169;28;20074;-63
2022/05/17 01:02:58;;;;;;;12.25;5.43;;;14.80;89.60;;;;;;5037520;28;20136;-63
2022/05/17 01:05:25;;;;;;;12.13;5.25;;;14.80;89.90;;;;;;5037298;28;20067;-63
2022/05/17 01:07:57;;;;;;;6.78;4.10;;;14.80;89.80;;;;;;5038854;28;20500;-63
2022/05/17 01:10:28;;;;;;;10.40;4.68;;;14.80;89.50;;;;;;5041459;28;20053;-63
2022/05/17 01:15:39;;;;;;;8.43;4.93;;;14.70;89.60;;;;;;5041760;28;20068;-63
2022/05/17 01:18:06;;;;;;;11.13;4.95;;;14.70;89.10;;;;;;5041151;28;20087;-63
2022/05/17 01:20:32;;;;;;;7.82;4.20;;;14.70;89.20;;;;;;5041475;28;20028;-64
2022/05/17 01:22:59;;;;;;;8.98;4.93;;;14.60;89.30;;;;;;5041240;28;20022;-63
2022/05/17 01:25:26;;;;;;;8.57;5.20;;;14.60;88.10;;;;;;5041033;28;20052;-63
2022/05/17 01:27:58;;;;;;;8.30;4.60;;;14.50;87.40;;;;;;5040898;28;20025;-63
2022/05/17 01:30:27;;;;;;;7.80;4.38;;;14.50;88.80;;;;;;5041008;28;20081;-63
2022/05/17 01:32:53;;;;;;;8.32;4.45;;;14.40;89.10;;;;;;5041139;28;20507;-63
2022/05/17 01:35:20;;;;;;;7.88;4.53;;;14.40;88.40;;;;;;5040845;28;20107;-63
2022/05/17 01:37:50;;;;;;;8.48;4.93;;;14.30;88.70;;;;;;5040957;28;20029;-63
2022/05/17 01:40:16;;;;;;;9.15;4.72;;;14.30;88.50;;;;;;5040701;28;20021;-63
2022/05/17 01:42:42;;;;;;;9.60;4.78;;;14.30;89.10;;;;;;5040709;28;20014;-63
2022/05/17 01:45:08;;;;;;;7.68;4.40;;;14.30;89.00;;;;;;5040680;28;20514;-63
2022/05/17 01:47:34;;;;;;;8.77;4.43;;;14.30;89.20;;;;;;5040540;28;20076;-62
2022/05/17 01:50:00;;;;;;;8.18;4.50;;;14.20;89.00;;;;;;5040630;28;20017;-63
2022/05/17 01:52:26;;;;;;;7.07;4.60;;;14.20;89.30;;;;;;5039541;28;20026;-63
2022/05/17 01:54:51;;;;;;;7.97;4.55;;;14.20;89.50;;;;;;5040420;28;20068;-63
2022/05/17 01:57:17;;;;;;;8.10;4.55;;;14.20;89.70;;;;;;5040621;28;20033;-63
2022/05/17 01:59:43;;;;;;;10.20;4.90;;;14.10;89.30;;;;;;5040714;28;20104;-63
2022/05/17 02:02:09;;;;;;;10.55;4.85;;;14.10;89.60;;;;;;5040292;28;20029;-62
2022/05/17 02:04:34;;;;;;;8.63;5.07;;;14.10;89.70;;;;;;5040565;28;20025;-63
2022/05/17 02:07:00;;;;;;;9.07;5.32;;;14.00;89.70;;;;;;5040212;28;20029;-62
2022/05/17 02:09:26;;;;;;;9.07;5.28;;;14.00;89.60;;;;;;5040293;28;20025;-63
2022/05/17 02:11:52;;;;;;;9.32;5.15;;;14.00;89.60;;;;;;5040068;28;20092;-63
2022/05/17 02:14:17;;;;;;;8.68;4.65;;;14.00;89.50;;;;;;5040252;28;20432;-63
2022/05/17 02:16:44;;;;;;;9.60;4.68;;;14.00;88.90;;;;;;5040210;28;20393;-63
2022/05/17 02:19:10;;;;;;;8.20;4.85;;;14.00;88.80;;;;;;5039621;28;20022;-63
2022/05/17 02:21:36;;;;;;;7.90;4.60;;;14.00;89.00;;;;;;5040020;28;20433;-63
2022/05/17 02:24:04;;;;;;;8.13;4.70;;;14.00;88.60;;;;;;5040195;28;20080;-63
2022/05/17 02:26:30;;;;;;;8.98;4.90;;;14.00;89.40;;;;;;5040110;28;20018;-63
2022/05/17 02:28:56;;;;;;;10.10;5.70;;;14.00;89.50;;;;;;5039876;28;20076;-63
2022/05/17 02:31:22;;;;;;;11.80;5.13;;;14.00;88.10;;;;;;5040037;28;20029;-62
2022/05/17 02:33:48;;;;;;;8.43;4.50;;;14.00;89.10;;;;;;5039783;28;20025;-63
2022/05/17 02:36:14;;;;;;;6.65;4.60;;;14.10;88.80;;;;;;5039708;28;20394;-63
2022/05/17 02:38:40;;;;;;;8.60;4.22;;;14.00;88.70;;;;;;5040108;28;20037;-63
2022/05/17 02:41:06;;;;;;;7.38;4.85;;;14.00;89.20;;;;;;5039729;28;20060;-63
2022/05/17 02:43:33;;;;;;;8.63;5.13;;;14.10;89.00;;;;;;5039611;28;20018;-63
2022/05/17 02:45:58;;;;;;;9.20;4.45;;;14.10;89.00;;;;;;5039794;28;20067;-63
2022/05/17 02:48:24;;;;;;;9.13;4.90;;;14.00;89.30;;;;;;5039657;28;20037;-63
2022/05/17 02:50:50;;;;;;;10.38;5.20;;;14.00;89.10;;;;;;5039699;28;20077;-63
2022/05/17 02:53:16;;;;;;;11.80;5.75;;;14.00;88.90;;;;;;5039467;28;20025;-63
2022/05/17 02:55:42;;;;;;;8.68;5.13;;;14.00;89.20;;;;;;5039176;28;20080;-63
2022/05/17 02:58:07;;;;;;;10.57;6.32;;;14.00;89.20;;;;;;5039704;28;20052;-63
2022/05/17 03:00:33;;;;;;;10.55;5.78;;;14.00;88.90;;;;;;5039416;28;20461;-63
2022/05/17 03:02:59;;;;;;;8.00;5.60;;;14.00;89.00;;;;;;5039270;28;20041;-63
2022/05/17 03:05:25;;;;;;;10.45;5.30;;;14.00;89.80;;;;;;5038860;28;20018;-63
2022/05/17 03:07:51;;;;;;;10.30;5.78;;;14.00;90.00;;;;;;5039421;28;20522;-62
2022/05/17 03:10:17;;;;;;;8.68;5.80;;;14.00;89.70;;;;;;5039130;28;20022;-63
2022/05/17 03:12:44;;;;;;;9.82;6.38;;;13.90;89.40;;;;;;5038747;28;20029;-63
2022/05/17 03:15:16;;;;;;;11.45;5.93;;;13.90;90.00;;;;;;5038885;28;20428;-62
2022/05/17 03:17:42;;;;;;;10.93;6.20;;;13.90;90.00;;;;;;5038950;28;20040;-63
2022/05/17 03:20:08;;;;;;;9.25;6.07;;;13.90;89.40;;;;;;5039212;28;20489;-63
2022/05/17 03:22:34;;;;;;;9.25;6.10;;;13.90;89.80;;;;;;5038762;28;20017;-62
2022/05/17 03:24:59;;;;;;;10.25;6.50;;;13.90;90.20;;;;;;5039091;28;20032;-62
2022/05/17 03:27:25;;;;;;;9.30;6.00;;;13.80;90.40;;;;;;5038808;28;20025;-63
2022/05/17 03:29:51;;;;;;;12.05;6.70;;;13.80;90.40;;;;;;5037835;28;20089;-63
2022/05/17 03:32:17;;;;;;;12.18;6.55;;;13.80;90.70;;;;;;5038487;28;20056;-63
2022/05/17 03:34:43;;;;;;;12.30;7.20;;;13.80;90.80;;;;;;5038682;28;20029;-62
2022/05/17 03:37:08;;;;;;;12.25;6.40;;;13.80;90.80;;;;;;5038365;28;20033;-62
2022/05/17 03:39:34;;;;;;;11.13;6.35;;;13.90;90.80;;;;;;5038372;28;20018;-63
2022/05/17 03:42:00;;;;;;;10.05;6.65;;;13.90;91.00;;;;;;5038387;28;20036;-63
2022/05/17 03:44:26;;;;;;;12.25;6.43;;;13.90;90.70;;;;;;5038723;28;20017;-63
2022/05/17 03:46:52;;;;;;;9.93;6.18;;;13.90;90.60;;;;;;5038583;28;20084;-63
2022/05/17 03:49:18;;;;;;;9.23;6.70;;;13.90;90.60;;;;;;5038176;28;20024;-63
2022/05/17 03:51:47;;;;;;;10.23;6.50;;;14.00;90.50;;;;;;5038164;28;20048;-62
2022/05/17 03:54:14;;;;;;;9.00;6.65;;;14.00;90.20;;;;;;5038048;28;20092;-63
2022/05/17 03:56:40;;;;;;;9.63;6.20;;;14.00;90.10;;;;;;5038237;28;20083;-62
2022/05/17 03:59:06;;;;;;;12.35;6.28;;;14.00;90.40;;;;;;5037949;28;20021;-62
2022/05/17 04:01:31;;;;;;;10.23;6.20;;;14.00;90.50;;;;;;5038136;28;20072;-62
2022/05/17 04:03:57;;;;;;;10.35;6.65;;;14.00;90.10;;;;;;5038072;28;20018;-63
2022/05/17 04:06:23;;;;;;;9.05;5.82;;;14.00;90.30;;;;;;5038030;28;20029;-62
2022/05/17 04:08:50;;;;;;;10.48;6.80;;;14.00;90.40;;;;;;5038203;28;20017;-62
2022/05/17 04:11:15;;;;;;;9.88;6.03;;;14.00;90.90;;;;;;5038136;28;20108;-63
2022/05/17 04:13:41;;;;;;;9.48;6.20;;;14.00;90.50;;;;;;5037888;28;20052;-63
2022/05/17 04:16:07;;;;;;;8.88;6.25;;;14.00;90.50;;;;;;5037836;28;20030;-63
2022/05/17 04:18:33;;;;;;;10.20;6.10;;;14.00;90.60;;;;;;5037793;28;20025;-63
2022/05/17 04:21:00;;;;;;;9.48;6.57;;;14.10;90.50;;;;;;5037692;28;20029;-63
2022/05/17 04:23:26;;;;;;;9.07;6.18;;;14.10;90.40;;;;;;5038015;28;20025;-63
2022/05/17 04:25:51;;;;;;;8.68;6.07;;;14.10;90.30;;;;;;5037691;28;20085;-63
2022/05/17 04:28:17;;;;;;;8.95;6.10;;;14.10;90.30;;;;;;5037653;28;20017;-63
2022/05/17 04:30:44;;;;;;;10.55;6.38;;;14.10;90.30;;;;;;5037621;28;20100;-63
2022/05/17 04:33:12;;;;;;;8.63;5.88;;;14.10;90.10;;;;;;5037414;28;20220;-63
2022/05/17 04:35:38;;;;;;;8.32;5.80;;;14.10;90.40;;;;;;5037789;28;20025;-63
2022/05/17 04:38:04;;;;;;;8.60;5.57;;;14.10;90.30;;;;;;5037589;28;20026;-63
2022/05/17 04:40:30;;;;;;;7.70;5.65;;;14.10;90.30;;;;;;5037793;28;20034;-63
2022/05/17 04:42:57;;;;;;;9.07;5.75;;;14.10;90.60;;;;;;5037055;28;20071;-63
2022/05/17 04:45:24;;;;;;;8.85;5.88;;;14.20;90.60;;;;;;5037589;28;20029;-63
2022/05/17 04:47:50;;;;;;;7.93;5.65;;;14.20;91.10;;;;;;5037663;28;20074;-63
2022/05/17 04:50:17;;;;;;;11.57;5.80;;;14.20;91.10;;;;;;5037405;28;20390;-63
2022/05/17 04:52:44;;;;;;;8.30;5.20;;;14.20;91.30;;;;;;5037554;28;20517;-63
2022/05/17 04:55:11;;;;;;;8.00;5.70;;;14.30;91.30;;;;;;5037450;28;20045;-63
2022/05/17 04:57:37;;;;;;;9.95;5.55;;;14.30;91.60;;;;;;5037261;28;20025;-63
2022/05/17 05:00:10;;;;;;;9.15;5.72;;;14.40;91.60;;;;;;5036879;28;20025;-63
2022/05/17 05:02:36;;;;;;;9.50;5.82;;;14.50;90.90;;;;;;5037172;28;20025;-63
2022/05/17 05:05:03;;;;;;;11.30;6.07;;;14.60;91.30;;;;;;5037269;28;20053;-63
2022/05/17 05:07:29;;;;;;;9.07;5.63;;;14.60;91.40;;;;;;5037374;28;20022;-63
2022/05/17 05:09:54;;;;;;;10.48;5.70;;;14.70;91.20;;;;;;5037259;28;20432;-63
2022/05/17 05:12:20;;;;;;;10.13;5.70;;;14.70;91.20;;;;;;5037242;28;20029;-63
2022/05/17 05:14:46;;;;;;;10.68;5.57;;;14.80;90.90;;;;;;5037184;28;20029;-63
2022/05/17 05:17:12;;;;;;;12.38;5.80;;;14.80;90.80;;;;;;5037141;28;20044;-63
2022/05/17 05:19:38;;;;;;;10.13;5.95;;;14.80;90.80;;;;;;5037565;28;20029;-63
2022/05/17 05:22:04;;;;;;;10.52;6.03;;;14.90;91.30;;;;;;5037072;28;20101;-63
2022/05/17 05:24:31;;;;;;;10.55;4.93;;;14.90;91.50;;;;;;5036910;28;20429;-63
2022/05/17 05:26:58;;;;;;;8.43;5.65;;;14.90;91.20;;;;;;5037309;28;20033;-63
2022/05/17 05:29:24;;;;;;;10.80;5.70;;;15.00;91.50;;;;;;5037294;28;20540;-63
2022/05/17 05:31:49;;;;;;;10.40;5.35;;;15.10;91.20;;;;;;5037036;28;20433;-63
2022/05/17 05:34:15;;;;;;;10.32;5.40;;;15.10;91.00;;;;;;5037104;28;20109;-63
2022/05/17 05:36:41;;;;;;;11.70;5.22;;;15.20;90.90;;;;;;5037243;28;20041;-63
2022/05/17 05:39:07;;;;;;;9.23;5.40;;;15.30;90.90;;;;;;5036960;28;20045;-63
2022/05/17 05:41:33;;;;;;;11.05;5.57;;;15.30;90.80;;;;;;5036653;28;20029;-63
2022/05/17 05:43:59;;;;;;;8.50;5.70;;;15.30;90.90;;;;;;5037046;28;20030;-63
2022/05/17 05:46:25;;;;;;;9.00;5.70;;;15.40;90.80;;;;;;5037112;28;20033;-63
2022/05/17 05:48:51;;;;;;;8.10;5.35;;;15.40;91.20;;;;;;5036826;28;20022;-63
2022/05/17 05:51:18;;;;;;;9.57;5.38;;;15.50;91.10;;;;;;5037114;28;20383;-62
2022/05/17 05:53:44;;;;;;;11.20;5.45;;;15.50;91.00;;;;;;5037931;28;20032;-63
2022/05/17 05:56:11;;;;;;;10.02;5.18;;;15.60;91.00;;;;;;5040293;28;20058;-63
2022/05/17 05:58:40;;;;;;;8.30;5.03;;;15.60;90.90;;;;;;5040609;28;20127;-63
2022/05/17 06:01:06;;;;;;;10.77;5.55;;;15.70;91.00;;;;;;5040422;28;20025;-63
2022/05/17 06:03:33;;;;;;;8.63;4.68;;;15.80;90.70;;;;;;5040081;28;20128;-63
2022/05/17 06:05:59;;;;;;;9.10;4.90;;;15.80;90.60;;;;;;5040132;28;20049;-63
2022/05/17 06:08:25;;;;;;;8.80;4.65;;;15.90;90.50;;;;;;5040122;28;20026;-63
2022/05/17 06:10:51;;;;;;;8.77;4.38;;;15.90;90.40;;;;;;5040554;28;20478;-63
2022/05/17 06:13:18;;;;;;;10.88;4.03;;;15.90;90.10;;;;;;5040281;28;20053;-63
2022/05/17 06:15:45;;;;;;;7.70;4.03;;;15.90;90.00;;;;;;5040330;28;20465;-63
2022/05/17 06:18:11;;;;;;;7.63;3.83;;;15.90;88.40;;;;;;5040268;28;20021;-63
2022/05/17 06:20:38;;;;;;;8.63;3.78;;;15.90;89.10;;;;;;5040205;28;20057;-63
2022/05/17 06:23:05;;;;;;;7.45;4.13;;;15.90;89.10;;;;;;5039970;28;20049;-63
2022/05/17 06:25:32;;;;;;;8.82;3.80;;;15.90;88.60;;;;;;5040134;28;20085;-63
2022/05/17 06:27:59;;;;;;;6.82;3.75;;;15.90;88.70;;;;;;5039870;28;20017;-63
2022/05/17 06:30:24;;;;;;;6.05;3.83;;;15.90;88.60;;;;;;5039812;28;20470;-63
2022/05/17 06:32:51;;;;;;;7.10;3.70;;;15.90;88.70;;;;;;5040090;28;20025;-63
2022/05/17 06:35:18;;;;;;;8.48;4.40;;;15.90;88.30;;;;;;5039924;28;20037;-63
2022/05/17 06:37:44;;;;;;;7.63;4.30;;;15.90;88.20;;;;;;5040170;28;20161;-63
2022/05/17 06:40:11;;;;;;;10.23;4.10;;;16.00;88.70;;;;;;5039593;28;20025;-63
2022/05/17 06:42:37;;;;;;;6.65;4.20;;;16.00;88.10;;;;;;5039772;28;20028;-63
2022/05/17 06:45:03;;;;;;;9.10;4.25;;;16.00;89.30;;;;;;5039930;28;20025;-63
2022/05/17 06:47:29;;;;;;;7.57;4.43;;;16.10;89.20;;;;;;5039452;28;20498;-63
2022/05/17 06:49:55;;;;;;;8.50;4.80;;;16.20;89.60;;;;;;5039066;28;20416;-64
2022/05/17 06:52:27;;;;;;;8.23;4.40;;;16.30;90.00;;;;;;5039145;28;20482;-63
2022/05/17 06:54:55;;;;;;;8.27;4.70;;;16.40;89.60;;;;;;5039341;28;20041;-63
2022/05/17 06:57:21;;;;;;;7.78;4.43;;;16.60;89.50;;;;;;5039326;28;20075;-63
2022/05/17 06:59:46;;;;;;;8.45;5.03;;;16.60;89.40;;;;;;5038213;28;20104;-63
2022/05/17 07:02:12;;;;;;;9.68;5.13;;;16.70;89.40;;;;;;5039392;28;20041;-63
2022/05/17 07:04:39;;;;;;;10.27;5.70;;;16.80;88.90;;;;;;5038792;28;20036;-63
2022/05/17 07:07:06;;;;;;;9.95;5.18;;;16.90;89.30;;;;;;5038924;28;20030;-63
2022/05/17 07:09:32;;;;;;;9.02;5.03;;;17.00;89.30;;;;;;5039122;28;20022;-63
2022/05/17 07:14:42;;;;;;;9.52;5.53;;;17.20;89.40;;;;;;5039107;28;20036;-63
2022/05/17 07:17:17;;;;;;;9.07;5.10;;;17.30;89.50;;;;;;5038789;28;20018;-63
2022/05/17 07:19:44;;;;;;;10.82;5.63;;;17.40;88.60;;;;;;5039029;28;20102;-63
2022/05/17 07:22:11;;;;;;;11.50;5.78;;;17.50;88.10;;;;;;5038729;28;20026;-63
2022/05/17 07:24:37;;;;;;;9.90;5.68;;;17.60;88.20;;;;;;5038745;28;20026;-63
2022/05/17 07:27:05;;;;;;;9.63;5.43;;;17.70;87.50;;;;;;5038631;28;20021;-63
2022/05/17 07:29:32;;;;;;;10.02;5.50;;;17.70;88.10;;;;;;5038505;28;20030;-63
2022/05/17 07:31:58;;;;;;;11.13;5.97;;;17.80;87.80;;;;;;5038612;28;20101;-63
2022/05/17 07:34:24;;;;;;;12.20;5.90;;;17.80;87.40;;;;;;5038509;28;20053;-63
2022/05/17 07:36:50;;;;;;;10.20;5.35;;;17.90;87.50;;;;;;5038661;28;20049;-63
2022/05/17 07:39:16;;;;;;;10.30;6.13;;;18.00;86.30;;;;;;5038555;28;20025;-63
2022/05/17 07:41:42;;;;;;;10.55;5.45;;;18.20;84.20;;;;;;5038285;28;20027;-63
2022/05/17 07:44:09;;;;;;;10.77;5.57;;;18.30;85.00;;;;;;5038129;28;20021;-63
2022/05/17 07:46:35;;;;;;;11.77;5.97;;;18.40;83.10;;;;;;5038280;28;20010;-63
2022/05/17 07:49:01;;;;;;;9.45;5.25;;;18.40;84.50;;;;;;5038621;28;20025;-63
2022/05/17 07:51:27;;;;;;;10.90;5.22;;;18.50;83.70;;;;;;5038168;28;20032;-63
2022/05/17 07:53:54;;;;;;;10.98;5.53;;;18.40;83.80;;;;;;5038093;28;20026;-63
2022/05/17 07:56:20;;;;;;;12.95;5.78;;;18.40;83.80;;;;;;5037666;28;20099;-63
2022/05/17 07:58:46;;;;;;;10.23;5.45;;;18.30;82.90;;;;;;5037785;28;20513;-63
2022/05/17 08:01:12;;;;;;;13.15;5.47;;;18.30;82.90;;;;;;5037849;28;20022;-63
2022/05/17 08:03:39;;;;;;;10.00;5.55;;;18.30;83.20;;;;;;5037724;28;20129;-63
2022/05/17 08:06:05;;;;;;;11.73;5.90;;;18.40;83.90;;;;;;5037923;28;20053;-63
2022/05/17 08:08:31;;;;;;;11.25;6.03;;;18.40;84.20;;;;;;5037661;28;20030;-63
2022/05/17 08:10:57;;;;;;;10.80;5.90;;;18.60;84.60;;;;;;5037987;28;20060;-63
2022/05/17 08:13:25;;;;;;;12.50;5.85;;;18.70;84.70;;;;;;5037835;28;20033;-63
2022/05/17 08:15:51;;;;;;;10.00;5.65;;;18.80;83.40;;;;;;5037365;28;20025;-63
2022/05/17 08:18:18;;;;;;;9.43;5.13;;;18.90;81.50;;;;;;5037901;28;20459;-63
2022/05/17 08:20:45;;;;;;;11.23;5.32;;;18.90;82.40;;;;;;5037692;28;20080;-63
2022/05/17 08:23:11;;;;;;;11.35;4.95;;;19.00;79.30;;;;;;5037633;28;20028;-63
2022/05/17 08:28:21;;;;;;;9.68;5.07;;;19.20;83.40;;;;;;5037978;28;20033;-63
2022/05/17 08:30:47;;;;;;;9.73;5.15;;;19.30;82.50;;;;;;5037560;28;20029;-63
2022/05/17 08:33:16;;;;;;;10.35;5.55;;;19.30;81.30;;;;;;5037601;28;20140;-63
2022/05/17 08:35:44;;;;;;;9.25;5.05;;;19.30;80.90;;;;;;5037325;28;20049;-63
2022/05/17 08:38:13;;;;;;;11.57;5.50;;;19.30;79.80;;;;;;5037445;28;20025;-63
2022/05/17 08:40:51;;;;;;;11.48;5.80;;;19.30;80.90;;;;;;5037427;28;20064;-63
2022/05/17 08:43:43;;;;;;;9.15;5.47;;;19.30;81.60;;;;;;5037621;28;20052;-63
2022/05/17 08:46:45;;;;;;;12.10;5.63;;;19.30;80.10;;;;;;5036645;28;20033;-63
2022/05/17 08:49:24;;;;;;;12.65;5.63;;;19.30;80.10;;;;;;5037608;28;20107;-63
2022/05/17 08:51:54;;;;;;;9.95;5.65;;;19.30;78.80;;;;;;5037336;28;20045;-64
2022/05/17 08:54:24;;;;;;;11.45;5.50;;;19.30;80.10;;;;;;5037135;28;20385;-63
2022/05/17 08:57:26;;;;;;;11.02;5.78;;;19.40;80.80;;;;;;5036808;28;20523;-63
2022/05/17 08:59:53;;;;;;;9.50;5.72;;;19.40;81.80;;;;;;5037284;28;20032;-63
2022/05/17 09:02:28;;;;;;;9.95;5.85;;;19.50;81.70;;;;;;5035730;28;20029;-63
2022/05/17 09:05:06;;;;;;;9.20;5.25;;;19.60;80.20;;;;;;5037421;28;20013;-63
2022/05/17 09:07:47;;;;;;;11.18;5.45;;;19.70;80.20;;;;;;5037304;28;20021;-63
2022/05/17 09:10:31;;;;;;;9.55;5.70;;;19.90;78.60;;;;;;5035858;28;20187;-63
2022/05/17 09:13:29;;;;;;;11.45;6.13;;;20.00;78.30;;;;;;5035623;28;20083;-63
2022/05/17 09:15:59;;;;;;;11.70;5.97;;;20.20;78.00;;;;;;5036285;28;20029;-63
2022/05/17 09:18:26;;;;;;;10.23;5.47;;;20.30;77.60;;;;;;5036206;28;20032;-63
2022/05/17 09:20:52;;;;;;;11.18;5.50;;;20.30;78.70;;;;;;5036150;28;20032;-63
2022/05/17 09:23:18;;;;;;;9.80;5.35;;;20.50;78.10;;;;;;5036155;28;20049;-63
2022/05/17 09:25:52;;;;;;;11.45;6.63;;;20.60;76.80;;;;;;5036900;28;20489;-63
2022/05/17 09:28:21;;;;;;;9.90;5.43;;;20.70;77.00;;;;;;5037885;28;20465;-63
2022/05/17 09:30:47;;;;;;;10.52;5.68;;;20.90;76.60;;;;;;5041082;28;20264;-63
2022/05/17 09:33:19;;;;;;;9.65;5.45;;;21.00;76.40;;;;;;5040951;28;20048;-63
2022/05/17 09:36:00;;;;;;;12.10;5.78;;;21.20;74.50;;;;;;5041156;28;20063;-63
2022/05/17 09:38:30;;;;;;;10.13;6.10;;;21.30;73.50;;;;;;5041065;28;20025;-63
2022/05/17 09:40:57;;;;;;;10.95;5.47;;;21.40;75.70;;;;;;5041002;28;20034;-63
2022/05/17 09:43:35;;;;;;;10.68;5.38;;;21.60;73.90;;;;;;5040811;28;20022;-63
2022/05/17 09:46:11;;;;;;;9.27;5.47;;;21.80;75.00;;;;;;5040734;28;20033;-63
2022/05/17 09:54:33;;;;;;;8.50;5.20;;;22.10;75.70;;;;;;5040714;28;20397;-63
2022/05/17 09:57:19;;;;;;;10.20;5.72;;;22.30;71.90;;;;;;5040654;28;20276;-63
2022/05/17 09:59:47;;;;;;;13.35;5.65;;;22.30;73.10;;;;;;5040323;28;20061;-64
2022/05/17 10:02:33;;;;;;;8.95;4.50;;;22.40;71.10;;;;;;5040451;28;20031;-63
2022/05/17 10:05:26;;;;;;;8.45;5.35;;;22.50;69.40;;;;;;5040460;28;20022;-64
2022/05/17 10:07:57;;;;;;;12.20;5.53;;;22.40;68.90;;;;;;5040421;28;20029;-63
2022/05/17 10:10:35;;;;;;;10.80;5.25;;;22.40;68.20;;;;;;5040395;28;20030;-63
2022/05/17 10:13:14;;;;;;;11.52;5.05;;;22.30;68.70;;;;;;5040323;28;20034;-63
2022/05/17 10:15:43;;;;;;;11.18;5.30;;;22.30;71.70;;;;;;5039932;28;20394;-63
2022/05/17 10:18:35;;;;;;;8.73;4.93;;;22.20;69.50;;;;;;5040344;28;20095;-63
2022/05/17 10:21:46;;;;;;;9.82;5.10;;;22.00;67.60;;;;;;5040087;28;20025;-63
2022/05/17 10:24:23;;;;;;;11.95;5.22;;;21.70;70.30;;;;;;5039084;28;20029;-63
2022/05/17 10:27:02;;;;;;;11.32;5.60;;;22.10;71.30;;;;;;5039995;28;20057;-63
2022/05/17 10:29:53;;;;;;;11.88;5.45;;;22.80;70.60;;;;;;5039297;28;20535;-63
2022/05/17 10:32:24;;;;;;;10.35;4.93;;;23.50;70.00;;;;;;5038151;28;20067;-62
2022/05/17 10:35:06;;;;;;;9.32;4.90;;;23.80;69.30;;;;;;5039213;28;20033;-63
2022/05/17 10:37:40;;;;;;;8.13;4.57;;;24.00;67.50;;;;;;5039883;28;20244;-63
2022/05/17 10:40:11;;;;;;;10.13;5.15;;;24.00;63.80;;;;;;5039068;28;20033;-63
2022/05/17 10:42:38;;;;;;;7.55;4.25;;;24.00;67.40;;;;;;5039622;28;20022;-63
2022/05/17 10:45:06;;;;;;;9.05;4.38;;;24.00;66.40;;;;;;5039814;28;20026;-63
2022/05/17 10:47:39;;;;;;;7.95;4.18;;;23.80;63.80;;;;;;5039584;28;20033;-61
2022/05/17 10:50:17;;;;;;;7.22;4.03;;;23.60;65.40;;;;;;5039650;28;20021;-61
2022/05/17 10:52:58;;;;;;;9.23;4.35;;;23.60;63.10;;;;;;5039499;28;20060;-61
2022/05/17 10:56:15;;;;;;;12.20;4.82;;;23.70;66.10;;;;;;5039298;28;20058;-61
2022/05/17 10:58:54;;;;;;;11.73;4.32;;;23.70;64.50;;;;;;5038604;28;20051;-61
2022/05/17 11:01:32;;;;;;;6.90;4.28;;;24.10;63.90;;;;;;5038970;28;20034;-62
2022/05/17 11:04:17;;;;;;;10.45;4.82;;;24.80;65.00;;;;;;5039180;28;20040;-62
2022/05/17 11:06:45;;;;;;;10.75;4.68;;;25.20;63.50;;;;;;5039143;28;20021;-61
2022/05/17 11:09:20;;;;;;;8.70;4.68;;;25.00;62.40;;;;;;5039066;28;20030;-61
2022/05/17 11:12:04;;;;;;;8.82;4.60;;;24.70;62.00;;;;;;5039052;28;20029;-60
2022/05/17 11:14:52;;;;;;;10.10;4.97;;;24.10;59.80;;;;;;5039143;28;20401;-61
2022/05/17 11:17:50;;;;;;;10.27;4.88;;;23.90;64.00;;;;;;5039008;28;20224;-61
2022/05/17 11:20:43;;;;;;;10.75;4.95;;;23.50;62.60;;;;;;5038425;28;20079;-61
2022/05/17 11:23:20;;;;;;;8.85;4.50;;;22.90;62.60;;;;;;5039074;28;20018;-61
2022/05/17 11:26:05;;;;;;;8.95;4.97;;;22.60;65.20;;;;;;5038421;28;20108;-61
2022/05/17 11:28:56;;;;;;;10.93;4.70;;;22.50;66.30;;;;;;5038832;28;20024;-61
2022/05/17 11:31:56;;;;;;;10.85;4.65;;;22.20;66.30;;;;;;5038705;28;20426;-61
2022/05/17 11:34:33;;;;;;;13.38;4.60;;;22.10;67.20;;;;;;5038351;28;20021;-61
2022/05/17 11:37:09;;;;;;;9.52;4.70;;;22.00;67.30;;;;;;5038509;28;20038;-61
2022/05/17 11:39:37;;;;;;;9.32;4.90;;;21.90;67.30;;;;;;5038235;28;20024;-61
2022/05/17 11:42:06;;;;;;;13.20;5.30;;;21.80;67.20;;;;;;5038406;28;20018;-61
2022/05/17 11:44:48;;;;;;;11.63;5.05;;;21.90;68.90;;;;;;5037983;28;20141;-61
2022/05/17 11:47:31;;;;;;;9.00;4.50;;;22.30;69.40;;;;;;5037305;28;20056;-61
2022/05/17 11:50:22;;;;;;;9.35;4.70;;;22.50;69.10;;;;;;5036218;28;20029;-61
2022/05/17 11:52:54;;;;;;;9.40;5.28;;;22.50;66.80;;;;;;5036625;28;20025;-61
2022/05/17 11:55:27;;;;;;;10.57;4.93;;;22.50;67.10;;;;;;5038424;28;20051;-61
2022/05/17 11:57:53;;;;;;;11.75;5.20;;;22.50;66.60;;;;;;5038215;28;20072;-61
2022/05/17 12:00:24;;;;;;;10.15;4.88;;;22.10;66.40;;;;;;5036627;28;20405;-61
2022/05/17 12:03:02;;;;;;;9.27;5.07;;;21.90;67.20;;;;;;5036027;28;20025;-61
2022/05/17 12:05:37;;;;;;;11.88;5.72;;;21.70;67.10;;;;;;5036057;28;20408;-61
2022/05/17 12:08:25;;;;;;;9.35;5.78;;;21.50;68.20;;;;;;5037040;28;20492;-61
2022/05/17 12:11:10;;;;;;;9.57;5.10;;;21.40;68.40;;;;;;5037512;28;20029;-62
2022/05/17 12:13:55;;;;;;;9.70;5.38;;;21.40;70.60;;;;;;5037172;28;20404;-62
2022/05/17 12:16:25;;;;;;;11.18;5.40;;;21.70;69.90;;;;;;5038119;28;20458;-62
2022/05/17 12:19:01;;;;;;;9.30;5.45;;;21.90;69.80;;;;;;5038162;28;20102;-61
2022/05/17 12:21:58;;;;;;;11.30;5.53;;;22.30;68.30;;;;;;5037767;28;20113;-62
2022/05/17 12:24:32;;;;;;;9.02;5.35;;;22.50;68.20;;;;;;5038011;28;20047;-62
2022/05/17 12:27:18;;;;;;;9.77;5.07;;;22.50;68.00;;;;;;5038203;28;20365;-61
2022/05/17 12:32:37;;;;;;;9.98;5.88;;;23.00;67.10;;;;;;5037755;28;20040;-62
2022/05/17 12:35:05;;;;;;;9.88;5.38;;;22.80;66.50;;;;;;5037670;28;20025;-62
2022/05/17 12:37:31;;;;;;;8.20;5.28;;;22.50;67.10;;;;;;5037823;28;20033;-62
2022/05/17 12:43:03;;;;;;;10.40;5.30;;;22.20;68.30;;;;;;5037753;28;20377;-62
2022/05/17 12:45:32;;;;;;;12.60;5.30;;;22.20;67.60;;;;;;5037421;28;20108;-61
2022/05/17 12:48:01;;;;;;;12.90;5.80;;;22.50;68.20;;;;;;5037236;28;20473;-61
2022/05/17 12:50:45;;;;;;;12.15;5.68;;;22.60;66.50;;;;;;5037377;28;20049;-61
2022/05/17 12:53:18;;;;;;;10.77;6.45;;;22.80;67.20;;;;;;5037712;28;20097;-61
2022/05/17 12:56:07;;;;;;;8.37;5.37;;;22.90;67.60;;;;;;5037766;28;20160;-61
2022/05/17 12:58:47;;;;;;;8.70;5.85;;;23.20;68.10;;;;;;5037556;28;20029;-61
2022/05/17 13:01:13;;;;;;;10.18;5.90;;;23.40;66.20;;;;;;5037267;28;20026;-61
2022/05/17 13:03:43;;;;;;;10.32;6.05;;;23.00;65.40;;;;;;5042725;28;20513;-61
2022/05/17 13:06:09;;;;;;;11.50;5.78;;;22.80;67.70;;;;;;5043912;28;20507;-61
2022/05/17 13:08:37;;;;;;;10.23;5.70;;;22.80;67.20;;;;;;5043720;28;20505;-61
2022/05/17 13:11:17;;;;;;;13.18;6.22;;;22.70;67.50;;;;;;5042631;28;20151;-62
2022/05/17 13:13:44;;;;;;;11.63;6.30;;;22.40;67.70;;;;;;5042382;28;20413;-62
2022/05/17 13:16:21;;;;;;;12.32;6.68;;;21.90;67.70;;;;;;5043839;28;20022;-62
2022/05/17 13:19:00;;;;;;;10.60;6.30;;;21.70;69.20;;;;;;5043834;28;20026;-62